Time;durP1;ratioP1;P1;durP2;ratioP2;P2;SDS_P1;SDS_P2;PMS_P1;PMS_P2;Temp;Humidity;BMP_temperature;BMP_pressure;BME280_temperature;BME280_humidity;BME280_pressure;Samples;Min_cycle;Max_cycle;Signal;HPM_P1;HPM_P2
2022/02/02 00:04:31;;;;;;;27.87;13.60;;;0.60;99.90;;;;;;4437678;32;20169;-65
2022/02/02 00:09:26;;;;;;;25.97;13.00;;;0.60;99.90;;;;;;4438294;32;20186;-65
2022/02/02 00:12:15;;;;;;;26.80;12.67;;;0.60;99.90;;;;;;4438572;32;20505;-65
2022/02/02 00:15:01;;;;;;;25.67;13.00;;;0.60;99.90;;;;;;4439395;32;20393;-65
2022/02/02 00:17:43;;;;;;;23.53;12.80;;;0.60;99.90;;;;;;4438542;32;20559;-65
2022/02/02 00:20:26;;;;;;;26.23;12.67;;;0.70;99.90;;;;;;4438615;32;20558;-65
2022/02/02 00:22:57;;;;;;;25.87;12.17;;;0.70;99.90;;;;;;4439018;32;20205;-65
2022/02/02 00:25:31;;;;;;;23.33;11.63;;;0.70;99.90;;;;;;4439210;32;20258;-65
2022/02/02 00:28:01;;;;;;;25.13;12.67;;;0.70;99.90;;;;;;4438431;32;20229;-65
2022/02/02 00:30:33;;;;;;;22.43;11.90;;;0.70;99.90;;;;;;4438282;32;20201;-65
2022/02/02 00:35:39;;;;;;;22.37;11.50;;;0.60;99.90;;;;;;4438817;32;20451;-65
2022/02/02 00:38:06;;;;;;;22.17;11.80;;;0.60;99.90;;;;;;4437628;32;20240;-65
2022/02/02 00:40:33;;;;;;;21.00;10.63;;;0.60;99.90;;;;;;4437525;32;20433;-65
2022/02/02 00:43:00;;;;;;;22.43;11.70;;;0.60;99.90;;;;;;4438399;32;20184;-65
2022/02/02 00:45:33;;;;;;;20.33;10.60;;;0.60;99.90;;;;;;4438359;32;20437;-65
2022/02/02 00:48:01;;;;;;;21.67;11.13;;;0.60;99.90;;;;;;4437336;32;20535;-65
2022/02/02 00:50:29;;;;;;;19.07;9.97;;;0.60;99.90;;;;;;4438110;32;20178;-65
2022/02/02 00:52:56;;;;;;;18.37;10.47;;;0.60;99.90;;;;;;4437719;32;20440;-64
2022/02/02 00:55:24;;;;;;;19.23;10.20;;;0.70;99.90;;;;;;4437625;32;20559;-64
2022/02/02 00:57:51;;;;;;;17.90;9.87;;;0.70;99.90;;;;;;4439038;32;20435;-64
2022/02/02 01:00:18;;;;;;;18.93;10.00;;;0.70;99.90;;;;;;4439593;32;20411;-64
2022/02/02 01:02:46;;;;;;;21.17;10.43;;;0.70;99.90;;;;;;4439625;32;20196;-64
2022/02/02 01:05:14;;;;;;;20.17;10.00;;;0.70;99.90;;;;;;4439788;32;20532;-64
2022/02/02 01:10:24;;;;;;;19.40;9.83;;;0.60;99.90;;;;;;4441343;32;20197;-64
2022/02/02 01:21:02;;;;;;;13.17;7.90;;;0.70;99.90;;;;;;4440571;32;20524;-64
2022/02/02 01:29:03;;;;;;;12.57;7.40;;;0.70;99.90;;;;;;4440119;32;20174;-64
2022/02/02 01:31:30;;;;;;;12.23;7.60;;;0.80;99.90;;;;;;4440111;32;20548;-64
2022/02/02 01:34:06;;;;;;;14.07;7.40;;;0.80;99.90;;;;;;4440089;32;20477;-64
2022/02/02 01:37:08;;;;;;;13.03;7.40;;;0.70;99.90;;;;;;4441476;32;20435;-64
2022/02/02 01:39:36;;;;;;;12.47;6.73;;;0.70;99.90;;;;;;4441074;32;20185;-64
2022/02/02 01:42:07;;;;;;;13.03;7.67;;;0.80;99.90;;;;;;4440313;32;20262;-65
2022/02/02 01:44:46;;;;;;;12.10;7.20;;;0.80;99.90;;;;;;4439726;32;20175;-64
2022/02/02 01:47:13;;;;;;;11.23;7.00;;;0.80;99.90;;;;;;4440391;32;20278;-65
2022/02/02 01:55:03;;;;;;;11.10;6.50;;;0.80;99.90;;;;;;4443729;32;20173;-64
2022/02/02 02:00:17;;;;;;;10.53;6.50;;;0.80;99.90;;;;;;4439860;32;20269;-64
2022/02/02 02:02:45;;;;;;;11.10;6.70;;;0.80;99.90;;;;;;4439661;32;20220;-64
2022/02/02 02:05:17;;;;;;;11.17;6.27;;;0.80;99.90;;;;;;4438732;32;20174;-64
2022/02/02 02:07:46;;;;;;;9.83;6.43;;;0.80;99.90;;;;;;4440467;32;20178;-65
2022/02/02 02:10:13;;;;;;;10.83;6.70;;;0.80;99.90;;;;;;4440057;32;20201;-65
2022/02/02 02:12:49;;;;;;;10.27;6.33;;;0.80;99.90;;;;;;4440897;32;20150;-65
2022/02/02 02:15:18;;;;;;;12.03;6.33;;;0.80;99.90;;;;;;4441081;32;20142;-65
2022/02/02 02:17:45;;;;;;;11.37;6.60;;;0.80;99.90;;;;;;4440203;32;20170;-65
2022/02/02 02:20:12;;;;;;;10.13;6.47;;;0.80;99.90;;;;;;4439731;32;20416;-64
2022/02/02 02:22:43;;;;;;;9.67;5.50;;;0.80;99.90;;;;;;4439645;32;20178;-65
2022/02/02 02:25:25;;;;;;;9.97;6.40;;;0.80;99.90;;;;;;4439668;32;20170;-66
2022/02/02 02:28:01;;;;;;;9.67;5.77;;;0.80;99.90;;;;;;4448031;32;20162;-66
2022/02/02 02:30:42;;;;;;;9.13;6.10;;;0.70;99.90;;;;;;4439691;32;20201;-66
2022/02/02 02:55:49;;;;;;;9.43;5.40;;;0.70;99.90;;;;;;4452019;32;20233;-64
2022/02/02 02:57:39;;;;;;;8.77;5.43;;;0.70;99.90;;;;;;4451677;32;20178;-62
2022/02/02 03:00:25;;;;;;;7.77;5.23;;;0.70;99.90;;;;;;4439967;32;20169;-62
2022/02/02 03:14:17;;;;;;;8.77;5.53;;;0.70;99.90;;;;;;4451606;32;20225;-63
2022/02/02 03:30:58;;;;;;;10.93;6.77;;;0.50;99.90;;;;;;4444198;32;20608;-66
2022/02/02 03:52:49;;;;;;;25.73;10.33;;;1.10;99.90;;;;;;4455315;32;20233;-66
2022/02/02 03:55:08;;;;;;;29.27;11.03;;;1.20;99.90;;;;;;4453710;32;20178;-67
2022/02/02 04:05:39;;;;;;;25.63;10.73;;;1.70;99.90;;;;;;4422647;32;20147;-67
2022/02/02 04:08:24;;;;;;;23.53;9.77;;;1.70;99.90;;;;;;4409334;32;20174;-68
2022/02/02 04:10:51;;;;;;;30.20;10.77;;;1.70;99.90;;;;;;4422146;32;20415;-67
2022/02/02 04:51:53;;;;;;;19.37;7.67;;;2.30;99.90;;;;;;4455937;32;20173;-66
2022/02/02 04:59:34;;;;;;;22.13;8.13;;;2.40;99.90;;;;;;4455858;32;20193;-67
2022/02/02 05:02:42;;;;;;;18.20;7.43;;;2.40;99.90;;;;;;4455818;32;20237;-67
2022/02/02 05:08:05;;;;;;;15.07;7.37;;;2.40;99.90;;;;;;4411989;32;20187;-66
2022/02/02 05:21:17;;;;;;;18.97;7.63;;;2.60;99.90;;;;;;4412619;32;20194;-66
2022/02/02 05:51:39;;;;;;;15.80;6.60;;;2.60;99.90;;;;;;4453272;32;20221;-66
2022/02/02 05:53:32;;;;;;;13.93;5.53;;;2.60;99.90;;;;;;4448067;32;20186;-67
2022/02/02 05:56:05;;;;;;;14.43;5.73;;;2.70;99.90;;;;;;4452654;32;20174;-65
2022/02/02 05:58:36;;;;;;;17.30;6.23;;;2.60;99.90;;;;;;4452774;32;20179;-65
2022/02/02 06:01:05;;;;;;;15.53;6.10;;;2.70;99.90;;;;;;4453153;32;20182;-66
2022/02/02 06:03:35;;;;;;;15.57;5.47;;;2.70;99.90;;;;;;4452560;32;20209;-66
2022/02/02 06:06:02;;;;;;;16.00;5.00;;;2.70;99.90;;;;;;4453016;32;20190;-67
2022/02/02 06:08:30;;;;;;;12.83;5.40;;;2.70;99.90;;;;;;4442887;32;20155;-67
2022/02/02 06:11:00;;;;;;;13.10;4.83;;;2.70;99.90;;;;;;4453114;32;20245;-67
2022/02/02 06:13:39;;;;;;;15.67;5.07;;;2.70;99.90;;;;;;4452717;32;20205;-67
2022/02/02 06:16:07;;;;;;;8.70;4.93;;;2.70;99.90;;;;;;4452892;32;20205;-67
2022/02/02 06:18:35;;;;;;;12.50;4.70;;;2.70;99.90;;;;;;4442054;32;20205;-67
2022/02/02 06:21:08;;;;;;;16.43;4.87;;;2.70;99.90;;;;;;4453566;32;20195;-67
2022/02/02 06:23:47;;;;;;;12.53;4.90;;;2.70;99.90;;;;;;4452117;32;20210;-66
2022/02/02 06:26:16;;;;;;;11.23;4.33;;;2.70;99.90;;;;;;4453700;32;20520;-68
2022/02/02 06:28:44;;;;;;;16.07;4.77;;;2.70;99.90;;;;;;4440827;32;20185;-68
2022/02/02 06:31:13;;;;;;;10.63;5.10;;;2.70;99.90;;;;;;4451839;32;20241;-67
2022/02/02 06:33:54;;;;;;;12.27;4.70;;;2.70;99.90;;;;;;4440498;32;20139;-66
2022/02/02 06:36:21;;;;;;;12.20;4.43;;;2.70;99.90;;;;;;4453974;32;20186;-67
2022/02/02 06:38:48;;;;;;;11.67;4.83;;;2.60;99.90;;;;;;4451843;32;20216;-67
2022/02/02 06:41:16;;;;;;;15.13;5.03;;;2.70;99.90;;;;;;4451552;32;20467;-67
2022/02/02 06:43:45;;;;;;;15.10;5.03;;;2.70;99.90;;;;;;4452912;32;20202;-67
2022/02/02 06:46:13;;;;;;;10.83;4.73;;;2.70;99.90;;;;;;4453654;32;20174;-67
2022/02/02 06:48:40;;;;;;;12.80;4.73;;;2.70;99.90;;;;;;4452930;32;20528;-67
2022/02/02 06:51:18;;;;;;;16.23;5.27;;;2.70;99.90;;;;;;4427985;32;20217;-67
2022/02/02 06:54:05;;;;;;;13.77;5.23;;;2.70;99.90;;;;;;4441981;32;20196;-67
2022/02/02 06:57:06;;;;;;;12.93;5.40;;;2.70;99.90;;;;;;4439971;32;20276;-67
2022/02/02 07:02:35;;;;;;;15.30;5.27;;;2.70;99.90;;;;;;4450672;32;20174;-67
2022/02/02 07:05:23;;;;;;;16.40;5.37;;;2.70;99.90;;;;;;4452600;32;20178;-67
2022/02/02 07:14:06;;;;;;;13.07;5.30;;;2.70;99.90;;;;;;4453107;32;20567;-67
2022/02/02 07:34:52;;;;;;;11.23;4.80;;;2.60;99.90;;;;;;4441055;32;20166;-67
2022/02/02 07:37:35;;;;;;;10.97;4.30;;;2.60;99.90;;;;;;4438004;32;20216;-67
2022/02/02 07:40:07;;;;;;;12.93;4.57;;;2.70;99.90;;;;;;4438417;32;20227;-67
2022/02/02 07:42:39;;;;;;;14.13;4.43;;;2.70;99.90;;;;;;4441369;32;20157;-67
2022/02/02 07:45:09;;;;;;;16.40;4.53;;;2.70;99.90;;;;;;4439467;32;20201;-68
2022/02/02 07:47:57;;;;;;;12.13;4.67;;;2.70;99.90;;;;;;4438122;32;20555;-67
2022/02/02 07:50:25;;;;;;;11.83;4.20;;;2.70;99.90;;;;;;4439134;32;20182;-68
2022/02/02 07:52:52;;;;;;;14.20;4.43;;;2.70;99.90;;;;;;4438287;32;20182;-67
2022/02/02 07:55:19;;;;;;;14.17;4.43;;;2.70;99.90;;;;;;4438160;32;20185;-67
2022/02/02 07:57:48;;;;;;;10.77;4.23;;;2.70;99.90;;;;;;4439974;32;20208;-67
2022/02/02 08:00:21;;;;;;;9.63;4.10;;;2.70;99.90;;;;;;4437695;32;20220;-67
2022/02/02 08:05:22;;;;;;;14.77;4.33;;;2.70;99.90;;;;;;4439987;32;20146;-67
2022/02/02 08:08:04;;;;;;;11.37;4.37;;;2.70;99.90;;;;;;4440829;32;20789;-67
2022/02/02 08:10:32;;;;;;;15.83;5.63;;;2.70;99.90;;;;;;4437676;32;20182;-67
2022/02/02 08:13:07;;;;;;;10.93;4.40;;;2.60;99.90;;;;;;4437467;32;20171;-67
2022/02/02 08:15:39;;;;;;;10.10;4.83;;;2.60;99.90;;;;;;4438124;32;20496;-67
2022/02/02 08:18:06;;;;;;;12.57;4.37;;;2.60;99.90;;;;;;4437453;32;20532;-68
2022/02/02 08:20:33;;;;;;;12.93;4.47;;;2.70;99.90;;;;;;4439527;32;20186;-67
2022/02/02 08:23:00;;;;;;;13.60;4.63;;;2.60;99.90;;;;;;4439343;32;20174;-67
2022/02/02 08:25:30;;;;;;;12.23;4.70;;;2.60;99.90;;;;;;4439850;32;20193;-67
2022/02/02 08:28:01;;;;;;;11.03;4.57;;;2.60;99.90;;;;;;4439207;32;20231;-68
2022/02/02 08:30:29;;;;;;;10.93;4.60;;;2.60;99.90;;;;;;4440248;32;20162;-67
2022/02/02 08:32:58;;;;;;;11.60;4.27;;;2.60;99.90;;;;;;4439532;32;20226;-68
2022/02/02 08:35:34;;;;;;;9.80;4.50;;;2.60;99.90;;;;;;4446491;32;20193;-67
2022/02/02 08:38:30;;;;;;;10.87;4.37;;;2.60;99.90;;;;;;4437544;32;20173;-68
2022/02/02 08:41:22;;;;;;;16.70;5.27;;;2.60;99.90;;;;;;4437919;32;20191;-67
2022/02/02 08:43:57;;;;;;;11.00;4.37;;;2.60;99.90;;;;;;4438883;32;20198;-67
2022/02/02 08:46:35;;;;;;;11.97;5.17;;;2.60;99.90;;;;;;4437940;32;20587;-67
2022/02/02 08:49:07;;;;;;;14.27;5.00;;;2.60;99.90;;;;;;4437806;32;20213;-67
2022/02/02 08:51:39;;;;;;;11.33;5.20;;;2.60;99.90;;;;;;4438084;32;20343;-67
2022/02/02 08:54:18;;;;;;;10.27;5.13;;;2.60;99.90;;;;;;4426150;32;20209;-67
2022/02/02 09:01:49;;;;;;;12.67;5.40;;;2.60;99.90;;;;;;4437357;32;20212;-67
2022/02/02 09:07:02;;;;;;;13.77;5.93;;;2.60;99.90;;;;;;4438510;32;20167;-67
2022/02/02 09:21:18;;;;;;;10.93;4.97;;;2.50;99.90;;;;;;4437745;32;20562;-68
2022/02/02 09:23:56;;;;;;;14.73;5.63;;;2.50;99.90;;;;;;4437412;32;20186;-68
2022/02/02 09:34:13;;;;;;;12.30;5.07;;;2.60;99.90;;;;;;4440097;32;20504;-68
2022/02/02 09:36:44;;;;;;;6.93;4.53;;;2.60;99.90;;;;;;4440661;32;20247;-67
2022/02/02 09:39:21;;;;;;;12.17;5.63;;;2.60;99.90;;;;;;4450731;32;20177;-67
2022/02/02 09:42:01;;;;;;;8.60;4.77;;;2.60;99.90;;;;;;4442320;32;20204;-67
2022/02/02 09:44:35;;;;;;;11.83;4.83;;;2.50;99.90;;;;;;4443018;32;20205;-67
2022/02/02 09:47:17;;;;;;;10.03;4.60;;;2.50;99.90;;;;;;4442118;32;20185;-67
2022/02/02 09:50:09;;;;;;;8.60;4.23;;;2.50;99.90;;;;;;4456480;32;20209;-67
2022/02/02 09:52:41;;;;;;;8.90;3.97;;;2.60;99.90;;;;;;4442710;32;20225;-67
2022/02/02 09:55:18;;;;;;;9.77;4.77;;;2.50;99.90;;;;;;4443106;32;20223;-67
2022/02/02 10:00:42;;;;;;;8.53;4.40;;;2.50;99.90;;;;;;4457023;32;20221;-68
2022/02/02 10:09:20;;;;;;;11.70;4.40;;;2.40;99.90;;;;;;4393117;32;20191;-68
2022/02/02 10:12:05;;;;;;;6.03;3.87;;;2.40;99.90;;;;;;4393198;32;20187;-67
2022/02/02 10:14:36;;;;;;;9.57;4.30;;;2.30;99.90;;;;;;4381825;32;20248;-67
2022/02/02 10:17:09;;;;;;;9.83;4.83;;;2.30;99.90;;;;;;4381343;32;20197;-67
2022/02/02 10:19:37;;;;;;;6.90;3.97;;;2.30;99.90;;;;;;4381220;32;20229;-67
2022/02/02 10:22:27;;;;;;;10.20;4.73;;;2.20;99.90;;;;;;4380525;32;20176;-67
2022/02/02 10:24:59;;;;;;;8.67;4.67;;;2.10;99.90;;;;;;4379606;32;20233;-68
2022/02/02 10:27:32;;;;;;;8.30;4.87;;;2.10;99.90;;;;;;4380573;32;20228;-68
2022/02/02 10:30:14;;;;;;;7.73;4.73;;;2.20;99.90;;;;;;4380307;32;20195;-67
2022/02/02 10:32:45;;;;;;;7.57;5.07;;;2.20;99.90;;;;;;4380914;32;20229;-67
2022/02/02 10:35:39;;;;;;;7.70;4.93;;;2.20;99.90;;;;;;4381331;32;20170;-67
2022/02/02 10:38:25;;;;;;;9.00;5.03;;;2.20;99.90;;;;;;4380433;32;20576;-68
2022/02/02 10:43:51;;;;;;;8.00;4.80;;;2.20;99.90;;;;;;4380930;32;20237;-68
2022/02/02 10:46:29;;;;;;;6.83;4.70;;;2.20;99.90;;;;;;4415788;32;20234;-68
2022/02/02 10:49:13;;;;;;;7.77;5.10;;;2.20;99.90;;;;;;4440984;32;20190;-68
2022/02/02 10:51:46;;;;;;;7.23;4.73;;;2.20;99.90;;;;;;4437251;32;20190;-69
2022/02/02 10:54:23;;;;;;;9.47;5.20;;;2.20;99.90;;;;;;4440611;32;20216;-68
2022/02/02 10:57:06;;;;;;;8.93;4.90;;;2.20;99.90;;;;;;4438713;32;20181;-68
2022/02/02 11:07:59;;;;;;;9.70;5.10;;;2.30;99.90;;;;;;4394294;32;20237;-68
2022/02/02 11:10:29;;;;;;;6.77;4.83;;;2.20;99.90;;;;;;4395019;32;20247;-68
2022/02/02 11:13:01;;;;;;;7.43;4.80;;;2.20;99.90;;;;;;4394658;32;20175;-67
2022/02/02 11:15:44;;;;;;;7.23;4.67;;;2.20;99.90;;;;;;4394670;32;20210;-67
2022/02/02 11:18:16;;;;;;;9.07;5.20;;;2.20;99.90;;;;;;4407052;32;20211;-68
2022/02/02 11:20:45;;;;;;;7.40;4.97;;;2.10;99.90;;;;;;4394332;32;20174;-68
2022/02/02 11:23:13;;;;;;;7.80;4.50;;;2.20;99.90;;;;;;4394146;32;20179;-68
2022/02/02 11:25:47;;;;;;;7.63;5.07;;;2.10;99.90;;;;;;4394221;32;20187;-67
2022/02/02 11:28:23;;;;;;;6.90;4.37;;;2.10;99.90;;;;;;4408124;32;20166;-67
2022/02/02 11:30:51;;;;;;;5.40;4.20;;;2.10;99.90;;;;;;4394439;32;20190;-67
2022/02/02 11:33:21;;;;;;;6.23;4.17;;;2.10;99.90;;;;;;4394478;32;20207;-68
2022/02/02 11:35:52;;;;;;;7.47;4.40;;;2.10;99.90;;;;;;4402853;32;20233;-68
2022/02/02 11:38:31;;;;;;;6.33;4.13;;;2.10;99.90;;;;;;4408984;32;20177;-68
2022/02/02 11:41:06;;;;;;;5.87;3.97;;;2.10;99.90;;;;;;4408940;32;20206;-67
2022/02/02 11:43:47;;;;;;;6.30;3.90;;;2.00;99.90;;;;;;4410898;32;20178;-65
2022/02/02 11:47:19;;;;;;;7.20;3.90;;;2.10;99.90;;;;;;4451481;32;20170;-66
2022/02/02 11:50:03;;;;;;;5.37;3.43;;;2.10;99.90;;;;;;4450215;32;20579;-67
2022/02/02 11:52:46;;;;;;;5.90;4.10;;;2.00;99.90;;;;;;4450676;32;20235;-67
2022/02/02 11:55:16;;;;;;;5.70;4.00;;;1.90;99.90;;;;;;4450924;32;20174;-67
2022/02/02 11:58:12;;;;;;;7.13;3.93;;;1.80;99.90;;;;;;4445147;32;20189;-67
2022/02/02 12:01:05;;;;;;;6.50;4.30;;;1.80;99.90;;;;;;4440455;32;20215;-67
2022/02/02 12:57:08;;;;;;;19.97;11.03;;;0.90;99.90;;;;;;4439232;32;20162;-66
2022/02/02 12:59:56;;;;;;;22.10;11.37;;;0.90;99.90;;;;;;4437472;32;20224;-66
2022/02/02 13:02:24;;;;;;;23.17;11.83;;;0.90;99.90;;;;;;4450432;32;20189;-66
2022/02/02 13:04:56;;;;;;;25.20;12.97;;;1.00;99.90;;;;;;4455991;32;20174;-66
2022/02/02 13:07:30;;;;;;;25.67;12.90;;;1.00;99.90;;;;;;4456962;32;20177;-66
2022/02/02 13:09:59;;;;;;;28.80;13.67;;;1.00;99.90;;;;;;4455657;32;20524;-66
2022/02/02 13:12:45;;;;;;;27.27;13.20;;;1.00;99.90;;;;;;4456086;32;20241;-66
2022/02/02 13:18:47;;;;;;;29.67;14.20;;;1.10;99.90;;;;;;4395812;32;20179;-66
2022/02/02 13:24:13;;;;;;;30.67;14.63;;;1.20;99.90;;;;;;4396485;32;20243;-66
2022/02/02 13:26:58;;;;;;;32.33;14.70;;;1.20;99.90;;;;;;4395614;32;20186;-66
2022/02/02 13:29:42;;;;;;;30.37;14.57;;;1.20;99.90;;;;;;4395151;32;20183;-66
2022/02/02 13:32:42;;;;;;;31.33;14.83;;;1.30;99.90;;;;;;4395778;32;20175;-66
2022/02/02 13:35:20;;;;;;;31.17;15.07;;;1.30;99.90;;;;;;4391222;32;20525;-66
2022/02/02 13:44:05;;;;;;;34.00;15.97;;;1.40;99.90;;;;;;4365702;32;20194;-67
2022/02/02 13:47:00;;;;;;;37.30;16.40;;;1.40;99.90;;;;;;4360854;32;20188;-69
2022/02/02 13:50:24;;;;;;;36.67;16.90;;;1.40;99.90;;;;;;4369075;32;20509;-66
2022/02/02 13:53:06;;;;;;;35.10;16.60;;;1.50;99.90;;;;;;4365842;32;20171;-66
2022/02/02 13:56:35;;;;;;;35.90;16.60;;;1.50;99.90;;;;;;4396205;32;20209;-67
2022/02/02 14:01:10;;;;;;;37.27;16.97;;;1.60;99.90;;;;;;4395015;32;20198;-67
2022/02/02 14:33:57;;;;;;;32.63;15.40;;;1.70;99.90;;;;;;4405623;32;20272;-65
2022/02/02 14:36:29;;;;;;;31.63;15.57;;;1.80;99.90;;;;;;4407340;32;20159;-66
2022/02/02 14:39:18;;;;;;;32.10;15.33;;;1.70;99.90;;;;;;4394571;32;20175;-66
2022/02/02 14:41:54;;;;;;;30.67;15.23;;;1.80;99.90;;;;;;4398882;32;20253;-65
2022/02/02 14:47:20;;;;;;;33.07;15.30;;;1.80;99.90;;;;;;4409791;32;20194;-66
2022/02/02 15:28:22;;;;;;;29.00;14.30;;;1.80;99.90;;;;;;4399387;32;20163;-64
2022/02/02 15:30:58;;;;;;;30.00;14.70;;;1.80;99.90;;;;;;4405295;32;20258;-65
2022/02/02 15:33:28;;;;;;;29.80;14.17;;;1.80;99.90;;;;;;4440820;32;20233;-65
2022/02/02 15:36:29;;;;;;;29.53;14.27;;;1.80;99.90;;;;;;4449931;32;20520;-64
2022/02/02 15:38:53;;;;;;;26.27;14.07;;;1.80;99.90;;;;;;4434365;32;20182;-64
2022/02/02 15:41:31;;;;;;;29.07;13.93;;;1.80;99.90;;;;;;4438211;32;20565;-65
2022/02/02 15:58:10;;;;;;;27.53;13.73;;;1.80;99.90;;;;;;4438999;32;20165;-65
2022/02/02 16:03:09;;;;;;;25.07;12.50;;;1.70;99.90;;;;;;4440343;32;20470;-67
2022/02/02 16:06:02;;;;;;;27.50;14.10;;;1.80;99.90;;;;;;4445438;32;20496;-67
2022/02/02 16:08:26;;;;;;;25.27;13.47;;;1.80;99.90;;;;;;4437550;32;20179;-67
2022/02/02 16:13:44;;;;;;;26.67;13.27;;;1.80;99.90;;;;;;4438093;32;20169;-67
2022/02/02 16:16:38;;;;;;;25.03;13.30;;;1.80;99.90;;;;;;4438735;32;20174;-67
2022/02/02 16:19:20;;;;;;;24.40;12.20;;;1.80;99.90;;;;;;4439142;32;20209;-68
2022/02/02 16:38:03;;;;;;;19.53;10.87;;;1.70;99.90;;;;;;4440990;32;20225;-68
2022/02/02 16:40:34;;;;;;;19.00;10.47;;;1.70;99.90;;;;;;4440537;32;20190;-68
2022/02/02 16:43:15;;;;;;;18.33;9.70;;;1.80;99.90;;;;;;4441157;32;20197;-68
2022/02/02 16:45:47;;;;;;;19.00;10.80;;;1.70;99.90;;;;;;4440272;32;20471;-68
2022/02/02 16:48:16;;;;;;;18.13;9.87;;;1.70;99.90;;;;;;4442128;32;20178;-68
2022/02/02 16:50:46;;;;;;;19.17;10.73;;;1.70;99.90;;;;;;4441221;32;20198;-69
2022/02/02 17:24:31;;;;;;;13.73;8.03;;;1.60;99.90;;;;;;4348805;33;20173;-68
2022/02/02 17:30:12;;;;;;;13.03;7.53;;;1.60;99.90;;;;;;4348098;33;20246;-69
2022/02/02 17:32:40;;;;;;;13.83;7.33;;;1.60;99.90;;;;;;4348869;33;20482;-69
2022/02/02 17:38:02;;;;;;;10.53;6.80;;;1.60;99.90;;;;;;4367589;32;20166;-69
2022/02/02 17:43:40;;;;;;;13.60;5.97;;;1.60;99.90;;;;;;4380637;32;20190;-69
2022/02/02 17:56:14;;;;;;;9.63;6.10;;;1.60;99.90;;;;;;4393694;32;20201;-69
2022/02/02 18:01:05;;;;;;;12.23;5.17;;;1.50;99.90;;;;;;4428038;32;20419;-70
2022/02/02 18:19:19;;;;;;;10.03;5.60;;;1.50;99.90;;;;;;4439036;32;20174;-69
2022/02/02 18:21:46;;;;;;;9.60;5.70;;;1.50;99.90;;;;;;4440124;32;20178;-70
2022/02/02 18:27:19;;;;;;;10.83;6.10;;;1.50;99.90;;;;;;4439091;32;20607;-69
2022/02/02 18:29:47;;;;;;;10.47;6.20;;;1.50;99.90;;;;;;4439449;32;20182;-70
2022/02/02 18:35:15;;;;;;;11.40;6.27;;;1.50;99.90;;;;;;4395912;32;20190;-69
2022/02/02 18:51:52;;;;;;;14.57;7.43;;;1.50;99.90;;;;;;4408773;32;20273;-69
2022/02/02 18:59:26;;;;;;;11.93;7.40;;;1.50;99.90;;;;;;4408353;32;20178;-69
2022/02/02 19:02:03;;;;;;;14.50;7.53;;;1.50;99.90;;;;;;4406861;32;20217;-69
2022/02/02 19:30:51;;;;;;;15.37;8.27;;;1.50;99.90;;;;;;4439339;32;20196;-69
2022/02/02 19:31:57;;;;;;;14.70;8.50;;;1.50;99.90;;;;;;4438561;32;20190;-69
2022/02/02 19:40:11;;;;;;;16.23;8.50;;;1.50;99.90;;;;;;4438361;32;20254;-69
2022/02/02 19:56:29;;;;;;;13.20;8.10;;;1.50;99.90;;;;;;4438365;32;20185;-70
2022/02/02 20:12:37;;;;;;;16.70;8.50;;;1.40;99.90;;;;;;4406538;32;20179;-70
2022/02/02 20:15:10;;;;;;;15.67;8.57;;;1.40;99.90;;;;;;4393588;32;20201;-70
2022/02/02 20:17:38;;;;;;;16.43;9.03;;;1.40;99.90;;;;;;4406771;32;20211;-70
2022/02/02 20:20:18;;;;;;;15.13;8.57;;;1.40;99.90;;;;;;4408058;32;20249;-69
2022/02/02 20:22:46;;;;;;;16.37;8.90;;;1.40;99.90;;;;;;4406512;32;20189;-70
2022/02/02 20:25:16;;;;;;;18.83;9.43;;;1.30;99.90;;;;;;4407515;32;20196;-70
2022/02/02 20:27:52;;;;;;;15.90;9.10;;;1.30;99.90;;;;;;4393820;32;20217;-70
2022/02/02 20:30:19;;;;;;;16.00;9.03;;;1.30;99.90;;;;;;4406930;32;20178;-70
2022/02/02 20:32:47;;;;;;;17.63;9.50;;;1.30;99.90;;;;;;4393547;32;20541;-70
2022/02/02 20:35:14;;;;;;;18.17;9.73;;;1.30;99.90;;;;;;4407325;32;20181;-70
2022/02/02 20:37:41;;;;;;;18.07;9.47;;;1.20;99.90;;;;;;4406941;32;20190;-70
2022/02/02 20:40:09;;;;;;;15.57;9.07;;;1.10;99.90;;;;;;4406016;32;20171;-69
2022/02/02 20:42:56;;;;;;;17.83;9.30;;;1.10;99.90;;;;;;4433508;32;20213;-70
2022/02/02 21:09:36;;;;;;;17.17;8.27;;;0.60;99.90;;;;;;4438143;32;20198;-70
2022/02/02 21:14:39;;;;;;;15.43;8.17;;;0.60;99.90;;;;;;4438154;32;20181;-69
2022/02/02 21:17:16;;;;;;;15.47;7.67;;;0.60;99.90;;;;;;4438353;32;20170;-69
2022/02/02 21:19:52;;;;;;;14.70;7.53;;;0.60;99.90;;;;;;4437936;32;20180;-70
2022/02/02 21:22:22;;;;;;;13.67;7.63;;;0.60;99.90;;;;;;4439646;32;20193;-70
2022/02/02 21:25:09;;;;;;;15.00;7.47;;;0.70;99.90;;;;;;4440821;32;20172;-70
2022/02/02 21:27:40;;;;;;;13.83;7.40;;;0.60;99.90;;;;;;4429952;32;20192;-71
2022/02/02 21:30:08;;;;;;;12.00;6.90;;;0.70;99.90;;;;;;4440082;32;20192;-71
2022/02/02 21:32:36;;;;;;;13.13;6.83;;;0.70;99.90;;;;;;4439937;32;20431;-70
2022/02/02 21:35:07;;;;;;;15.70;7.73;;;0.70;99.90;;;;;;4440285;32;20214;-69
2022/02/02 21:37:36;;;;;;;12.37;6.97;;;0.80;99.90;;;;;;4439754;32;20226;-68
2022/02/02 21:40:26;;;;;;;13.87;6.87;;;0.70;99.90;;;;;;4439697;32;20218;-69
2022/02/02 21:42:55;;;;;;;13.67;6.77;;;0.70;99.90;;;;;;4440507;32;20166;-69
2022/02/02 21:45:24;;;;;;;15.10;6.87;;;0.70;99.90;;;;;;4439921;32;20240;-69
2022/02/02 21:47:51;;;;;;;11.67;6.50;;;0.60;99.90;;;;;;4439779;32;20433;-68
2022/02/02 21:50:20;;;;;;;12.53;7.17;;;0.60;99.90;;;;;;4441433;32;20195;-69
2022/02/02 21:52:48;;;;;;;11.73;6.83;;;0.60;99.90;;;;;;4439038;32;20422;-69
2022/02/02 21:55:16;;;;;;;13.93;6.60;;;0.50;99.90;;;;;;4440555;32;20156;-69
2022/02/02 21:57:48;;;;;;;10.63;5.90;;;0.50;99.90;;;;;;4441076;32;20520;-69
2022/02/02 22:00:16;;;;;;;11.07;6.00;;;0.40;99.90;;;;;;4437970;32;20193;-69
2022/02/02 22:02:44;;;;;;;11.50;6.30;;;0.40;99.90;;;;;;4440036;32;20550;-69
2022/02/02 22:05:11;;;;;;;10.77;6.27;;;0.40;99.90;;;;;;4440509;32;20289;-70
2022/02/02 22:07:39;;;;;;;9.63;5.97;;;0.40;99.90;;;;;;4443573;32;20227;-69
2022/02/02 22:10:08;;;;;;;10.80;5.67;;;0.30;99.90;;;;;;4440401;32;20182;-69
2022/02/02 22:12:37;;;;;;;12.57;6.00;;;0.30;99.90;;;;;;4439174;32;20196;-69
2022/02/02 22:15:14;;;;;;;10.50;5.57;;;0.20;99.90;;;;;;4441135;32;20158;-69
2022/02/02 22:17:44;;;;;;;11.90;5.23;;;0.10;99.90;;;;;;4442506;32;20204;-69
2022/02/02 22:20:14;;;;;;;9.83;5.07;;;0.10;99.90;;;;;;4440700;32;20174;-70
2022/02/02 22:22:42;;;;;;;9.90;5.00;;;0.10;99.90;;;;;;4441859;32;20217;-69
2022/02/02 22:25:12;;;;;;;11.27;5.03;;;0.10;99.90;;;;;;4440500;32;20190;-69
2022/02/02 22:27:40;;;;;;;9.23;5.33;;;0.10;99.90;;;;;;4447172;32;20209;-69
2022/02/02 22:30:08;;;;;;;9.70;4.93;;;0.00;99.90;;;;;;4441490;32;20516;-69
2022/02/02 22:32:35;;;;;;;9.33;4.40;;;0.00;99.90;;;;;;4448116;32;20147;-69
2022/02/02 22:35:04;;;;;;;9.83;4.77;;;0.00;99.90;;;;;;4440807;32;20226;-69
2022/02/02 22:37:31;;;;;;;10.67;5.00;;;0.00;99.90;;;;;;4438858;32;20247;-69
2022/02/02 22:39:58;;;;;;;6.93;4.10;;;0.00;99.90;;;;;;4439973;32;20225;-68
2022/02/02 22:42:27;;;;;;;10.27;4.33;;;-0.10;99.90;;;;;;4439622;32;20213;-68
2022/02/02 22:44:59;;;;;;;8.53;3.93;;;-0.10;99.90;;;;;;4440975;32;20445;-69
2022/02/02 22:47:28;;;;;;;7.20;3.90;;;0.00;99.90;;;;;;4443635;32;20178;-69
2022/02/02 22:50:01;;;;;;;7.10;3.80;;;0.00;99.90;;;;;;4440264;32;20224;-69
2022/02/02 22:52:29;;;;;;;7.43;3.90;;;0.00;99.90;;;;;;4438896;32;20221;-68
2022/02/02 22:54:56;;;;;;;6.77;4.30;;;0.00;99.90;;;;;;4438821;32;20177;-68
2022/02/02 22:57:24;;;;;;;7.30;3.70;;;0.00;99.90;;;;;;4438751;32;20181;-69
2022/02/02 22:59:52;;;;;;;9.43;4.40;;;0.00;99.90;;;;;;4437678;32;20196;-70
2022/02/02 23:04:49;;;;;;;7.20;3.60;;;-0.10;99.90;;;;;;4438569;32;20177;-69
2022/02/02 23:07:19;;;;;;;9.03;3.93;;;-0.10;99.90;;;;;;4426528;32;20417;-68
2022/02/02 23:09:48;;;;;;;6.47;3.50;;;-0.10;99.90;;;;;;4439108;32;20186;-69
2022/02/02 23:12:18;;;;;;;5.00;3.30;;;0.00;99.90;;;;;;4440357;32;20213;-68
2022/02/02 23:14:46;;;;;;;5.07;3.37;;;-0.10;99.90;;;;;;4439293;32;20179;-68
2022/02/02 23:17:14;;;;;;;7.13;3.27;;;-0.10;99.90;;;;;;4441462;32;20216;-68
2022/02/02 23:19:45;;;;;;;6.03;3.70;;;-0.10;99.90;;;;;;4454889;32;20151;-68
2022/02/02 23:22:15;;;;;;;6.33;3.17;;;-0.10;99.90;;;;;;4438619;32;20217;-69
2022/02/02 23:24:51;;;;;;;6.93;3.80;;;-0.10;99.90;;;;;;4437500;32;20189;-68
2022/02/02 23:27:18;;;;;;;7.13;3.30;;;-0.10;99.90;;;;;;4449287;32;20253;-68
2022/02/02 23:29:53;;;;;;;4.67;3.20;;;-0.10;99.90;;;;;;4447481;32;20194;-68
2022/02/02 23:32:23;;;;;;;5.63;3.23;;;-0.10;99.90;;;;;;4433306;32;20166;-69
2022/02/02 23:34:50;;;;;;;5.13;3.63;;;-0.10;99.90;;;;;;4439215;32;20177;-68
2022/02/02 23:37:17;;;;;;;5.33;3.10;;;-0.10;99.90;;;;;;4439557;32;20182;-68
2022/02/02 23:39:44;;;;;;;6.73;3.77;;;-0.10;99.90;;;;;;4438869;32;20190;-68
2022/02/02 23:44:42;;;;;;;6.50;3.13;;;-0.10;99.90;;;;;;4437600;32;20211;-68
2022/02/02 23:47:13;;;;;;;5.13;3.20;;;-0.10;99.90;;;;;;4438232;32;20186;-68
2022/02/02 23:49:57;;;;;;;6.50;3.27;;;-0.10;99.90;;;;;;4439690;32;20172;-68